createdAt,value
2018-06-25T00:03:00.188Z,16.60
2018-06-25T00:08:02.719Z,16.60
2018-06-25T00:13:05.231Z,16.50
2018-06-25T00:18:07.755Z,16.50
2018-06-25T00:23:10.267Z,16.40
2018-06-25T00:28:12.783Z,16.30
2018-06-25T00:33:15.336Z,16.30
2018-06-25T00:38:17.851Z,16.30
2018-06-25T00:43:20.366Z,16.20
2018-06-25T00:48:22.885Z,16.20
2018-06-25T00:53:25.395Z,16.10
2018-06-25T00:58:27.920Z,16.10
2018-06-25T01:03:30.435Z,16.00
2018-06-25T01:08:33.746Z,15.90
2018-06-25T01:13:37.191Z,15.90
2018-06-25T01:18:39.708Z,15.90
2018-06-25T01:23:42.235Z,15.80
2018-06-25T01:28:44.777Z,15.80
2018-06-25T01:33:47.296Z,15.80
2018-06-25T01:38:49.803Z,15.80
2018-06-25T01:43:52.315Z,15.70
2018-06-25T01:48:54.864Z,15.70
2018-06-25T01:53:57.381Z,15.70
2018-06-25T01:58:59.925Z,15.60
2018-06-25T02:04:02.435Z,15.60
2018-06-25T02:09:04.955Z,15.60
2018-06-25T02:14:07.484Z,15.50
2018-06-25T02:19:10.000Z,15.50
2018-06-25T02:24:12.524Z,15.50
2018-06-25T02:29:15.044Z,15.50
2018-06-25T02:34:17.559Z,15.40
2018-06-25T02:39:20.080Z,15.40
2018-06-25T02:44:22.601Z,15.40
2018-06-25T02:49:25.111Z,15.30
2018-06-25T02:54:27.629Z,15.40
2018-06-25T02:59:30.161Z,15.30
2018-06-25T03:04:32.680Z,15.30
2018-06-25T03:09:35.188Z,15.30
2018-06-25T03:14:37.730Z,15.20
2018-06-25T03:19:40.240Z,15.20
2018-06-25T03:24:43.535Z,15.20
2018-06-25T03:29:46.063Z,15.20
2018-06-25T03:34:49.343Z,15.20
2018-06-25T03:39:51.879Z,15.10
2018-06-25T03:44:54.404Z,15.20
2018-06-25T03:49:56.919Z,15.10
2018-06-25T03:54:59.440Z,15.20
2018-06-25T04:00:02.065Z,15.20
2018-06-25T04:05:04.583Z,15.10
2018-06-25T04:10:07.104Z,15.10
2018-06-25T04:15:09.637Z,15.10
2018-06-25T04:20:12.161Z,15.10
2018-06-25T04:25:15.454Z,15.00
2018-06-25T04:30:17.979Z,15.10
2018-06-25T04:35:20.500Z,15.10
2018-06-25T04:40:23.086Z,15.10
2018-06-25T04:45:25.545Z,15.10
2018-06-25T04:50:28.131Z,15.10
2018-06-25T04:55:30.590Z,15.30
2018-06-25T05:00:33.108Z,15.30
2018-06-25T05:05:35.769Z,15.40
2018-06-25T05:10:38.272Z,15.50
2018-06-25T05:15:40.799Z,15.70
2018-06-25T05:20:43.299Z,15.90
2018-06-25T05:25:45.812Z,16.00
2018-06-25T05:30:48.336Z,16.20
2018-06-25T05:35:50.967Z,16.40
2018-06-25T05:40:53.489Z,16.50
2018-06-25T05:45:56.060Z,16.70
2018-06-25T05:50:59.343Z,17.10
2018-06-25T05:56:01.864Z,17.10
2018-06-25T06:01:04.492Z,17.30
2018-06-25T06:06:07.012Z,17.40
2018-06-25T06:11:09.551Z,17.50
2018-06-25T06:16:12.063Z,17.50
2018-06-25T06:21:14.600Z,17.50
2018-06-25T06:26:17.182Z,17.50
2018-06-25T06:31:19.660Z,17.60
2018-06-25T06:36:22.193Z,17.60
2018-06-25T06:41:24.712Z,17.70
2018-06-25T06:46:27.233Z,17.70
2018-06-25T06:51:29.756Z,17.80
2018-06-25T06:56:32.286Z,17.90
2018-06-25T07:01:35.577Z,18.10
2018-06-25T07:06:38.095Z,18.20
2018-06-25T07:11:40.612Z,18.30
2018-06-25T07:16:43.141Z,18.50
2018-06-25T07:21:45.684Z,18.60
2018-06-25T07:26:48.199Z,18.70
2018-06-25T07:31:51.096Z,18.80
2018-06-25T07:36:54.375Z,19.00
2018-06-25T07:41:56.891Z,19.00
2018-06-25T07:46:59.482Z,19.00
2018-06-25T07:52:01.956Z,19.00
2018-06-25T07:57:04.477Z,18.90
2018-06-25T08:02:06.985Z,19.00
2018-06-25T08:07:09.863Z,19.00
2018-06-25T08:12:12.657Z,19.00
2018-06-25T08:17:15.265Z,19.00
2018-06-25T08:22:17.848Z,19.00
2018-06-25T08:27:20.434Z,19.10
2018-06-25T08:32:23.122Z,19.20
2018-06-25T08:37:25.627Z,19.40
2018-06-25T08:42:28.151Z,19.60
2018-06-25T08:47:30.668Z,19.80
2018-06-25T08:52:33.192Z,20.00
2018-06-25T08:57:35.716Z,20.20
2018-06-25T09:02:38.228Z,20.40
2018-06-25T09:07:40.743Z,20.50
2018-06-25T09:12:43.263Z,20.60
2018-06-25T09:17:45.784Z,20.80
2018-06-25T09:22:48.338Z,20.90
2018-06-25T09:27:50.879Z,21.00
2018-06-25T09:32:53.380Z,21.10
2018-06-25T09:37:55.902Z,21.20
2018-06-25T09:42:58.452Z,21.30
2018-06-25T09:48:01.727Z,21.30
2018-06-25T09:53:04.255Z,21.30
2018-06-25T09:58:06.778Z,21.30
2018-06-25T10:03:09.316Z,21.40
2018-06-25T10:08:11.840Z,21.40
2018-06-25T10:13:14.376Z,21.50
2018-06-25T10:18:16.879Z,21.50
2018-06-25T10:23:19.404Z,21.70
2018-06-25T10:28:21.931Z,22.00
2018-06-25T10:33:24.449Z,22.20
2018-06-25T10:38:26.964Z,22.40
2018-06-25T10:43:29.525Z,22.60
2018-06-25T10:48:32.800Z,23.00
2018-06-25T10:53:35.335Z,22.90
2018-06-25T10:58:37.848Z,23.10
2018-06-25T11:03:40.418Z,23.20
2018-06-25T11:08:42.937Z,23.30
2018-06-25T11:13:46.220Z,23.50
2018-06-25T11:18:48.739Z,23.50
2018-06-25T11:23:52.028Z,23.70
2018-06-25T11:28:54.548Z,23.70
2018-06-25T11:33:57.071Z,23.90
2018-06-25T11:38:59.596Z,24.00
2018-06-25T11:44:02.142Z,24.10
2018-06-25T11:49:04.672Z,24.30
2018-06-25T11:54:07.184Z,24.30
2018-06-25T11:59:09.704Z,24.30
2018-06-25T12:04:12.221Z,24.30
2018-06-25T12:09:14.744Z,24.40
2018-06-25T12:14:17.320Z,24.40
2018-06-25T12:19:19.771Z,24.40
2018-06-25T12:24:22.348Z,24.40
2018-06-25T12:29:24.868Z,24.30
2018-06-25T12:34:27.416Z,24.20
2018-06-25T12:39:29.947Z,24.10
2018-06-25T12:44:32.523Z,23.90
2018-06-25T12:49:35.050Z,23.80
2018-06-25T12:54:37.572Z,23.70
2018-06-25T12:59:40.095Z,23.60
2018-06-25T13:04:42.639Z,23.50
2018-06-25T13:09:45.183Z,23.50
2018-06-25T13:14:47.716Z,23.40
2018-06-25T13:19:50.207Z,23.50
2018-06-25T13:24:52.723Z,23.60
2018-06-25T13:29:55.261Z,23.70
2018-06-25T13:34:57.771Z,23.90
2018-06-25T13:40:00.300Z,24.10
2018-06-25T13:45:02.836Z,24.40
2018-06-25T13:50:06.360Z,24.60
2018-06-25T13:55:08.886Z,24.80
2018-06-25T14:00:11.663Z,24.80
2018-06-25T14:05:14.184Z,24.80
2018-06-25T14:10:16.715Z,24.80
2018-06-25T14:15:19.252Z,24.70
2018-06-25T14:20:21.768Z,24.70
2018-06-25T14:25:25.072Z,24.50
2018-06-25T14:30:27.611Z,24.50
2018-06-25T14:35:30.130Z,24.40
2018-06-25T14:40:32.661Z,24.40
2018-06-25T14:45:35.292Z,24.30
2018-06-25T14:50:37.800Z,24.30
2018-06-25T14:55:40.332Z,24.30
2018-06-25T15:00:42.881Z,24.40
2018-06-25T15:05:46.151Z,24.60
2018-06-25T15:10:48.876Z,24.50
2018-06-25T15:15:51.666Z,24.60
2018-06-25T15:20:54.615Z,24.50
2018-06-25T15:26:03.709Z,24.40
2018-06-25T15:31:06.483Z,24.10
2018-06-25T15:36:09.982Z,24.00
2018-06-25T15:41:12.547Z,23.90
2018-06-25T15:46:16.063Z,23.50
2018-06-25T15:51:18.611Z,23.10
2018-06-25T15:56:21.133Z,23.00
2018-06-25T16:01:23.674Z,22.80
2018-06-25T16:06:26.231Z,22.60
2018-06-25T16:11:29.593Z,22.70
2018-06-25T16:16:32.160Z,22.80
2018-06-25T16:21:34.733Z,22.80
2018-06-25T16:26:37.269Z,22.90
2018-06-25T16:31:39.914Z,22.90
2018-06-25T16:36:43.217Z,23.10
2018-06-25T16:41:47.296Z,23.10
2018-06-25T16:46:49.969Z,23.10
2018-06-25T16:51:52.519Z,23.20
2018-06-25T16:56:55.084Z,23.10
2018-06-25T17:01:57.639Z,23.10
2018-06-25T17:07:00.197Z,23.00
2018-06-25T17:12:03.069Z,22.90
2018-06-25T17:17:05.605Z,22.80
2018-06-25T17:22:08.140Z,22.70
2018-06-25T17:27:10.706Z,22.70
2018-06-25T17:32:14.148Z,22.60
2018-06-25T17:37:16.995Z,22.50
2018-06-25T17:42:19.841Z,22.40
2018-06-25T17:47:22.544Z,22.40
2018-06-25T17:52:25.117Z,22.30
2018-06-25T17:57:28.665Z,22.30
2018-06-25T18:02:31.265Z,22.20
2018-06-25T18:07:33.791Z,22.10
2018-06-25T18:12:37.968Z,21.90
2018-06-25T18:17:40.675Z,22.00
2018-06-25T18:22:43.236Z,21.90
2018-06-25T18:27:45.770Z,21.80
2018-06-25T18:32:48.466Z,21.80
2018-06-25T18:37:51.790Z,21.50
2018-06-25T18:42:54.389Z,21.50
2018-06-25T18:47:56.954Z,21.50
2018-06-25T18:52:59.494Z,21.40
2018-06-25T18:58:02.065Z,21.30
2018-06-25T19:03:04.614Z,21.20
2018-06-25T19:08:07.238Z,21.10
2018-06-25T19:13:09.896Z,21.10
2018-06-25T19:18:12.448Z,21.00
2018-06-25T19:23:15.022Z,20.90
2018-06-25T19:28:17.601Z,20.80
2018-06-25T19:33:20.173Z,20.70
2018-06-25T19:38:22.672Z,20.70
2018-06-25T19:43:25.218Z,20.60
2018-06-25T19:48:27.767Z,20.50
2018-06-25T19:53:30.808Z,20.40
2018-06-25T19:58:33.372Z,20.30
2018-06-25T20:03:35.912Z,20.20
2018-06-25T20:08:39.232Z,20.00
2018-06-25T20:13:42.364Z,20.00
2018-06-25T20:18:44.905Z,19.90
2018-06-25T20:23:47.546Z,19.80
2018-06-25T20:28:50.101Z,19.70
2018-06-25T20:33:52.665Z,19.70
2018-06-25T20:38:55.269Z,19.60
2018-06-25T20:43:57.784Z,19.50
2018-06-25T20:49:00.352Z,19.40
2018-06-25T20:54:02.903Z,19.40
2018-06-25T20:59:05.456Z,19.30
2018-06-25T21:04:08.337Z,19.20
2018-06-25T21:09:10.900Z,19.20
2018-06-25T21:14:13.502Z,19.10
2018-06-25T21:19:15.992Z,19.00
2018-06-25T21:24:18.513Z,18.90
2018-06-25T21:29:21.132Z,18.90
2018-06-25T21:34:23.664Z,18.80
2018-06-25T21:39:26.195Z,18.70
2018-06-25T21:44:28.729Z,18.60
2018-06-25T21:49:31.251Z,18.50
2018-06-25T21:54:33.857Z,18.50
2018-06-25T21:59:36.417Z,18.40
2018-06-25T22:04:38.940Z,18.30
2018-06-25T22:09:41.499Z,18.20
2018-06-25T22:14:44.058Z,18.10
2018-06-25T22:19:46.604Z,18.00
2018-06-25T22:24:49.199Z,18.00
2018-06-25T22:29:51.764Z,17.90
2018-06-25T22:34:54.309Z,17.80
2018-06-25T22:39:57.141Z,17.70
2018-06-25T22:44:59.681Z,17.60
2018-06-25T22:50:02.342Z,17.50
2018-06-25T22:55:05.120Z,17.40
2018-06-25T23:00:07.683Z,17.30
2018-06-25T23:05:10.227Z,17.20
2018-06-25T23:10:12.798Z,17.10
2018-06-25T23:15:15.332Z,17.00
2018-06-25T23:20:17.888Z,16.90
2018-06-25T23:25:21.362Z,16.80
2018-06-25T23:30:25.561Z,16.70
2018-06-25T23:35:29.025Z,16.60
2018-06-25T23:40:32.153Z,16.50
2018-06-25T23:45:34.764Z,16.40
2018-06-25T23:50:37.346Z,16.30
2018-06-25T23:55:39.857Z,16.30
